createdAt,value
2023-02-18T00:01:15.551Z,101857.47
2023-02-18T00:03:42.351Z,101846.34
2023-02-18T00:06:15.865Z,101852.75
2023-02-18T00:08:44.181Z,101855.88
2023-02-18T00:11:11.102Z,101851.56
2023-02-18T00:13:37.743Z,101859.06
2023-02-18T00:16:10.761Z,101850.47
2023-02-18T00:18:38.465Z,101849.97
2023-02-18T00:21:07.169Z,101853.50
2023-02-18T00:23:34.447Z,101852.03
2023-02-18T00:26:02.567Z,101846.50
2023-02-18T00:28:29.133Z,101839.78
2023-02-18T00:30:55.702Z,101831.44
2023-02-18T00:33:22.734Z,101822.31
2023-02-18T00:35:49.630Z,101819.59
2023-02-18T00:38:16.793Z,101814.81
2023-02-18T00:40:43.520Z,101825.16
2023-02-18T00:43:10.954Z,101817.97
2023-02-18T00:45:37.437Z,101812.47
2023-02-18T00:48:03.995Z,101815.19
2023-02-18T00:50:30.474Z,101811.72
2023-02-18T00:52:56.946Z,101800.19
2023-02-18T00:55:23.408Z,101791.81
2023-02-18T00:57:49.862Z,101799.34
2023-02-18T01:00:16.806Z,101788.66
2023-02-18T01:02:43.879Z,101793.13
2023-02-18T01:05:10.412Z,101798.97
2023-02-18T01:07:36.860Z,101800.56
2023-02-18T01:10:04.655Z,101785.59
2023-02-18T01:12:31.144Z,101789.09
2023-02-18T01:14:57.611Z,101792.19
2023-02-18T01:17:24.104Z,101783.94
2023-02-18T01:19:50.607Z,101781.59
2023-02-18T01:22:17.218Z,101790.69
2023-02-18T01:24:45.417Z,101789.41
2023-02-18T01:27:12.873Z,101790.72
2023-02-18T01:29:39.386Z,101784.22
2023-02-18T01:32:06.032Z,101782.34
2023-02-18T01:34:32.670Z,101769.63
2023-02-18T01:37:01.208Z,101768.03
2023-02-18T01:39:27.698Z,101770.84
2023-02-18T01:41:54.158Z,101769.72
2023-02-18T01:44:23.616Z,101769.63
2023-02-18T01:46:50.359Z,101770.13
2023-02-18T01:49:22.714Z,101748.25
2023-02-18T01:51:54.149Z,101753.50
2023-02-18T01:54:32.773Z,101763.03
2023-02-18T01:57:05.207Z,101768.94
2023-02-18T01:59:37.159Z,101757.88
2023-02-18T02:02:06.035Z,101753.03
2023-02-18T02:04:32.663Z,101762.63
2023-02-18T02:06:59.293Z,101767.31
2023-02-18T02:09:28.834Z,101758.97
2023-02-18T02:12:10.671Z,101761.25
2023-02-18T02:14:43.145Z,101756.16
2023-02-18T02:17:26.983Z,101751.31
2023-02-18T02:20:29.290Z,101749.72
2023-02-18T02:23:23.208Z,101732.22
2023-02-18T02:26:11.490Z,101727.19
2023-02-18T02:29:01.395Z,101736.63
2023-02-18T02:32:09.213Z,101737.06
2023-02-18T02:35:06.646Z,101728.28
2023-02-18T02:37:48.709Z,101720.44
2023-02-18T02:40:36.750Z,101729.94
2023-02-18T02:43:35.414Z,101721.19
2023-02-18T02:46:19.762Z,101724.28
2023-02-18T02:48:58.733Z,101720.75
2023-02-18T02:51:46.913Z,101716.41
2023-02-18T02:54:25.305Z,101710.44
2023-02-18T02:57:25.023Z,101705.63
2023-02-18T03:00:00.272Z,101712.34
2023-02-18T03:02:26.658Z,101698.88
2023-02-18T03:05:20.407Z,101694.91
2023-02-18T03:08:12.965Z,101696.03
2023-02-18T03:10:56.945Z,101679.50
2023-02-18T03:13:44.937Z,101678.28
2023-02-18T03:16:24.115Z,101669.47
2023-02-18T03:19:06.610Z,101656.84
2023-02-18T03:21:39.858Z,101651.75
2023-02-18T03:24:18.718Z,101656.03
2023-02-18T03:26:52.428Z,101656.13
2023-02-18T03:29:21.230Z,101651.75
2023-02-18T03:31:52.876Z,101644.16
2023-02-18T03:34:33.952Z,101656.13
2023-02-18T03:37:01.584Z,101648.19
2023-02-18T03:39:32.171Z,101646.63
2023-02-18T03:41:58.642Z,101646.91
2023-02-18T03:44:26.043Z,101634.75
2023-02-18T03:46:53.187Z,101628.84
2023-02-18T03:49:19.718Z,101629.22
2023-02-18T03:51:47.199Z,101617.38
2023-02-18T03:54:14.610Z,101614.56
2023-02-18T03:56:41.332Z,101623.16
2023-02-18T03:59:07.827Z,101629.22
2023-02-18T04:01:35.692Z,101617.69
2023-02-18T04:04:03.189Z,101624.44
2023-02-18T04:06:29.769Z,101612.28
2023-02-18T04:08:56.236Z,101612.22
2023-02-18T04:11:22.785Z,101606.66
2023-02-18T04:13:49.322Z,101604.72
2023-02-18T04:16:16.055Z,101603.91
2023-02-18T04:18:42.602Z,101593.63
2023-02-18T04:21:09.284Z,101595.66
2023-02-18T04:23:35.744Z,101594.44
2023-02-18T04:26:02.222Z,101586.94
2023-02-18T04:28:28.673Z,101599.13
2023-02-18T04:30:55.175Z,101570.72
2023-02-18T04:33:21.682Z,101578.69
2023-02-18T04:35:48.134Z,101602.44
2023-02-18T04:38:14.618Z,101569.63
2023-02-18T04:40:41.162Z,101567.53
2023-02-18T04:43:07.654Z,101562.00
2023-02-18T04:45:34.233Z,101559.66
2023-02-18T04:48:00.670Z,101566.41
2023-02-18T04:50:27.241Z,101554.84
2023-02-18T04:52:53.759Z,101558.44
2023-02-18T04:55:20.193Z,101552.56
2023-02-18T04:57:46.732Z,101545.34
2023-02-18T05:00:18.528Z,101556.41
2023-02-18T05:02:46.098Z,101532.69
2023-02-18T05:05:14.270Z,101534.22
2023-02-18T05:07:42.316Z,101537.00
2023-02-18T05:10:11.747Z,101527.06
2023-02-18T05:12:38.297Z,101529.41
2023-02-18T05:15:05.198Z,101524.69
2023-02-18T05:17:31.807Z,101524.25
2023-02-18T05:19:58.565Z,101527.78
2023-02-18T05:22:25.093Z,101516.69
2023-02-18T05:24:51.576Z,101519.91
2023-02-18T05:27:18.119Z,101515.50
2023-02-18T05:29:44.628Z,101510.75
2023-02-18T05:32:11.289Z,101512.00
2023-02-18T05:34:37.761Z,101511.91
2023-02-18T05:37:04.305Z,101504.84
2023-02-18T05:39:30.773Z,101496.16
2023-02-18T05:41:57.290Z,101485.78
2023-02-18T05:44:30.390Z,101483.00
2023-02-18T05:46:58.776Z,101489.25
2023-02-18T05:49:25.831Z,101476.28
2023-02-18T05:51:52.348Z,101462.84
2023-02-18T05:54:18.814Z,101466.00
2023-02-18T05:56:45.299Z,101481.00
2023-02-18T05:59:11.966Z,101455.69
2023-02-18T06:01:38.613Z,101477.34
2023-02-18T06:04:05.218Z,101470.31
2023-02-18T06:06:32.152Z,101467.53
2023-02-18T06:08:58.711Z,101465.97
2023-02-18T06:11:25.189Z,101464.34
2023-02-18T06:13:51.683Z,101465.50
2023-02-18T06:16:18.223Z,101464.38
2023-02-18T06:18:44.799Z,101457.66
2023-02-18T06:21:11.352Z,101450.53
2023-02-18T06:23:37.953Z,101461.16
2023-02-18T06:26:04.671Z,101452.09
2023-02-18T06:28:31.176Z,101463.06
2023-02-18T06:30:57.748Z,101462.31
2023-02-18T06:33:24.348Z,101459.97
2023-02-18T06:36:00.126Z,101467.44
2023-02-18T06:38:27.693Z,101470.63
2023-02-18T06:40:54.512Z,101461.22
2023-02-18T06:43:21.281Z,101469.06
2023-02-18T06:45:47.823Z,101470.63
2023-02-18T06:48:14.449Z,101470.25
2023-02-18T06:50:43.074Z,101471.41
2023-02-18T06:53:10.105Z,101466.72
2023-02-18T06:55:36.662Z,101470.63
2023-02-18T06:58:03.290Z,101462.31
2023-02-18T07:00:29.810Z,101467.41
2023-02-18T07:02:56.273Z,101462.25
2023-02-18T07:05:22.767Z,101440.47
2023-02-18T07:07:49.343Z,101450.84
2023-02-18T07:10:16.008Z,101439.22
2023-02-18T07:12:42.545Z,101446.44
2023-02-18T07:15:09.458Z,101451.13
2023-02-18T07:17:35.927Z,101467.38
2023-02-18T07:20:03.001Z,101452.75
2023-02-18T07:22:29.445Z,101453.94
2023-02-18T07:24:56.178Z,101471.28
2023-02-18T07:27:23.183Z,101469.28
2023-02-18T07:29:49.714Z,101470.81
2023-02-18T07:32:18.087Z,101485.94
2023-02-18T07:34:44.645Z,101461.69
2023-02-18T07:37:12.395Z,101483.91
2023-02-18T07:39:43.151Z,101470.44
2023-02-18T07:42:11.423Z,101476.72
2023-02-18T07:44:38.935Z,101456.28
2023-02-18T07:47:06.270Z,101469.59
2023-02-18T07:49:33.214Z,101478.34
2023-02-18T07:51:59.847Z,101483.09
2023-02-18T07:54:26.879Z,101486.22
2023-02-18T07:56:54.855Z,101481.47
2023-02-18T07:59:21.652Z,101475.97
2023-02-18T08:01:48.223Z,101488.56
2023-02-18T08:04:15.413Z,101495.22
2023-02-18T08:06:47.408Z,101476.66
2023-02-18T08:09:14.245Z,101484.59
2023-02-18T08:11:40.753Z,101488.94
2023-02-18T08:14:07.646Z,101484.97
2023-02-18T08:16:34.808Z,101479.88
2023-02-18T08:19:03.633Z,101510.28
2023-02-18T08:21:30.896Z,101475.16
2023-02-18T08:23:58.573Z,101473.53
2023-02-18T08:26:25.977Z,101474.72
2023-02-18T08:28:52.832Z,101479.94
2023-02-18T08:31:30.057Z,101487.81
2023-02-18T08:33:58.715Z,101488.56
2023-02-18T08:36:25.255Z,101487.44
2023-02-18T08:38:51.835Z,101482.97
2023-02-18T08:41:21.419Z,101490.38
2023-02-18T08:43:48.206Z,101476.91
2023-02-18T08:46:15.858Z,101491.88
2023-02-18T08:48:43.909Z,101481.31
2023-02-18T08:51:13.273Z,101486.44
2023-02-18T08:53:40.036Z,101478.03
2023-02-18T08:56:08.511Z,101490.31
2023-02-18T08:58:37.276Z,101474.16
2023-02-18T09:01:07.060Z,101478.06
2023-02-18T09:03:34.753Z,101476.38
2023-02-18T09:06:01.596Z,101479.88
2023-02-18T09:08:28.454Z,101486.19
2023-02-18T09:10:59.336Z,101475.47
2023-02-18T09:13:26.556Z,101477.88
2023-02-18T09:16:06.725Z,101489.78
2023-02-18T09:18:37.710Z,101488.09
2023-02-18T09:21:07.593Z,101473.13
2023-02-18T09:23:35.104Z,101484.53
2023-02-18T09:26:04.925Z,101497.19
2023-02-18T09:28:31.412Z,101489.25
2023-02-18T09:30:57.969Z,101483.81
2023-02-18T09:33:24.470Z,101487.75
2023-02-18T09:35:50.939Z,101489.72
2023-02-18T09:38:17.826Z,101474.38
2023-02-18T09:40:48.616Z,101483.50
2023-02-18T09:43:22.630Z,101476.78
2023-02-18T09:45:51.402Z,101456.66
2023-02-18T09:48:17.889Z,101480.75
2023-02-18T09:50:52.368Z,101465.78
2023-02-18T09:53:19.514Z,101481.91
2023-02-18T09:55:46.405Z,101474.38
2023-02-18T09:58:18.414Z,101478.34
2023-02-18T10:00:50.610Z,101477.16
2023-02-18T10:03:21.081Z,101473.16
2023-02-18T10:05:58.332Z,101460.91
2023-02-18T10:08:32.179Z,101458.53
2023-02-18T10:10:58.685Z,101463.69
2023-02-18T10:13:29.258Z,101464.22
2023-02-18T10:15:56.002Z,101474.06
2023-02-18T10:21:14.045Z,101469.41
2023-02-18T10:23:47.363Z,101468.91
2023-02-18T10:26:17.988Z,101481.25
2023-02-18T10:28:45.417Z,101481.59
2023-02-18T10:31:18.511Z,101482.75
2023-02-18T10:33:54.370Z,101483.88
2023-02-18T10:36:35.707Z,101488.56
2023-02-18T10:39:25.146Z,101505.56
2023-02-18T10:42:06.037Z,101495.53
2023-02-18T10:44:44.260Z,101491.28
2023-02-18T10:47:39.095Z,101500.59
2023-02-18T10:50:42.794Z,101504.56
2023-02-18T10:53:34.934Z,101512.06
2023-02-18T10:56:01.998Z,101502.09
2023-02-18T10:58:37.156Z,101523.75
2023-02-18T11:01:08.523Z,101515.09
2023-02-18T11:03:42.968Z,101516.66
2023-02-18T11:06:19.769Z,101519.91
2023-02-18T11:08:47.091Z,101554.16
2023-02-18T11:11:24.614Z,101530.50
2023-02-18T11:13:57.078Z,101521.66
2023-02-18T11:16:35.741Z,101525.69
2023-02-18T11:19:04.324Z,101525.59
2023-02-18T11:21:36.133Z,101531.88
2023-02-18T11:24:20.723Z,101524.94
2023-02-18T11:26:47.274Z,101516.66
2023-02-18T11:29:20.054Z,101525.72
2023-02-18T11:31:49.772Z,101531.22
2023-02-18T11:34:32.884Z,101519.34
2023-02-18T11:37:23.195Z,101521.28
2023-02-18T11:39:54.201Z,101526.41
2023-02-18T11:42:24.466Z,101526.47
2023-02-18T11:44:59.253Z,101528.47
2023-02-18T11:47:37.149Z,101521.75
2023-02-18T11:50:09.623Z,101515.81
2023-02-18T11:52:41.424Z,101527.72
2023-02-18T11:55:27.688Z,101536.03
2023-02-18T11:58:00.860Z,101529.31
2023-02-18T12:00:37.096Z,101516.34
2023-02-18T12:03:15.437Z,101514.00
2023-02-18T12:05:44.295Z,101527.50
2023-02-18T12:08:19.291Z,101524.38
2023-02-18T12:11:05.187Z,101515.19
2023-02-18T12:14:04.200Z,101532.28
2023-02-18T12:16:54.724Z,101520.69
2023-02-18T12:19:27.039Z,101513.25
2023-02-18T12:22:26.716Z,101519.44
2023-02-18T12:25:14.759Z,101527.06
2023-02-18T12:28:00.011Z,101538.56
2023-02-18T12:30:58.512Z,101527.91
2023-02-18T12:33:27.658Z,101517.22
2023-02-18T12:36:03.268Z,101540.97
2023-02-18T12:38:55.897Z,101530.66
2023-02-18T12:41:35.902Z,101530.34
2023-02-18T12:44:33.820Z,101522.09
2023-02-18T12:47:24.880Z,101529.59
2023-02-18T12:50:19.204Z,101526.75
2023-02-18T12:53:18.634Z,101529.22
2023-02-18T12:56:01.311Z,101519.75
2023-02-18T12:58:49.614Z,101520.13
2023-02-18T13:01:38.642Z,101523.72
2023-02-18T13:04:23.117Z,101521.03
2023-02-18T13:07:07.127Z,101504.28
2023-02-18T13:09:36.721Z,101509.56
2023-02-18T13:12:11.168Z,101511.91
2023-02-18T13:15:01.740Z,101510.72
2023-02-18T13:17:34.008Z,101501.66
2023-02-18T13:20:05.698Z,101503.22
2023-02-18T13:22:33.764Z,101513.50
2023-02-18T13:25:00.397Z,101508.00
2023-02-18T13:27:29.653Z,101508.03
2023-02-18T13:30:10.993Z,101520.72
2023-02-18T13:32:48.206Z,101504.13
2023-02-18T13:35:34.625Z,101502.56
2023-02-18T13:38:04.172Z,101504.59
2023-02-18T13:40:32.414Z,101500.25
2023-02-18T13:43:20.847Z,101511.69
2023-02-18T13:46:17.530Z,101505.81
2023-02-18T13:48:52.611Z,101504.28
2023-02-18T13:51:40.064Z,101506.28
2023-02-18T13:54:13.076Z,101506.69
2023-02-18T13:56:58.251Z,101491.66
2023-02-18T13:59:42.854Z,101501.91
2023-02-18T14:02:21.646Z,101496.88
2023-02-18T14:04:55.549Z,101506.31
2023-02-18T14:07:25.136Z,101491.34
2023-02-18T14:09:53.770Z,101496.44
2023-02-18T14:13:03.188Z,101494.91
2023-02-18T14:15:29.672Z,101496.06
2023-02-18T14:17:58.881Z,101497.69
2023-02-18T14:20:39.484Z,101501.72
2023-02-18T14:23:19.149Z,101493.78
2023-02-18T14:25:57.499Z,101516.38
2023-02-18T14:28:38.836Z,101503.69
2023-02-18T14:31:22.130Z,101498.13
2023-02-18T14:34:23.440Z,101510.13
2023-02-18T14:37:24.211Z,101509.34
2023-02-18T14:40:23.409Z,101505.31
2023-02-18T14:42:57.214Z,101519.66
2023-02-18T14:45:26.624Z,101514.94
2023-02-18T14:48:08.415Z,101514.94
2023-02-18T14:50:38.729Z,101518.81
2023-02-18T14:53:08.303Z,101514.88
2023-02-18T14:55:37.776Z,101509.81
2023-02-18T14:58:32.632Z,101525.59
2023-02-18T15:01:06.833Z,101526.00
2023-02-18T15:03:33.453Z,101502.66
2023-02-18T15:05:59.959Z,101518.16
2023-02-18T15:08:26.678Z,101528.41
2023-02-18T15:11:07.427Z,101514.88
2023-02-18T15:13:37.086Z,101520.03
2023-02-18T15:16:08.482Z,101520.03
2023-02-18T15:18:42.219Z,101519.72
2023-02-18T15:21:17.729Z,101519.72
2023-02-18T15:23:44.299Z,101520.16
2023-02-18T15:26:16.048Z,101532.06
2023-02-18T15:28:54.193Z,101534.13
2023-02-18T15:31:26.113Z,101525.38
2023-02-18T15:33:52.690Z,101523.81
2023-02-18T15:36:19.144Z,101525.38
2023-02-18T15:38:45.704Z,101521.41
2023-02-18T15:41:15.092Z,101526.25
2023-02-18T15:44:01.477Z,101523.84
2023-02-18T15:46:28.845Z,101521.84
2023-02-18T15:48:57.342Z,101527.84
2023-02-18T15:51:28.853Z,101531.03
2023-02-18T15:54:02.616Z,101529.41
2023-02-18T15:56:40.161Z,101525.47
2023-02-18T15:59:20.266Z,101521.53
2023-02-18T16:01:51.749Z,101518.72
2023-02-18T16:04:19.971Z,101519.50
2023-02-18T16:06:50.707Z,101546.41
2023-02-18T16:09:30.373Z,101521.19
2023-02-18T16:11:59.681Z,101521.53
2023-02-18T16:14:46.358Z,101518.38
2023-02-18T16:17:12.801Z,101521.59
2023-02-18T16:19:46.943Z,101518.75
2023-02-18T16:22:34.127Z,101524.25
2023-02-18T16:25:06.922Z,101527.84
2023-02-18T16:27:36.973Z,101526.31
2023-02-18T16:30:17.119Z,101534.19
2023-02-18T16:32:43.959Z,101528.59
2023-02-18T16:35:12.152Z,101535.00
2023-02-18T16:37:39.179Z,101533.38
2023-02-18T16:40:39.536Z,101537.72
2023-02-18T16:43:15.433Z,101533.78
2023-02-18T16:45:44.839Z,101538.09
2023-02-18T16:48:34.187Z,101537.34
2023-02-18T16:51:13.854Z,101536.56
2023-02-18T16:53:40.442Z,101527.84
2023-02-18T16:56:14.453Z,101536.94
2023-02-18T16:58:41.065Z,101517.56
2023-02-18T17:01:19.047Z,101536.16
2023-02-18T17:03:48.495Z,101537.00
2023-02-18T17:06:15.839Z,101529.84
2023-02-18T17:08:42.382Z,101542.50
2023-02-18T17:11:25.992Z,101549.25
2023-02-18T17:13:53.944Z,101551.25
2023-02-18T17:16:21.529Z,101546.09
2023-02-18T17:18:48.493Z,101535.00
2023-02-18T17:21:18.115Z,101540.53
2023-02-18T17:23:45.206Z,101546.84
2023-02-18T17:26:16.229Z,101558.31
2023-02-18T17:28:42.771Z,101545.28
2023-02-18T17:31:15.603Z,101555.56
2023-02-18T17:33:42.903Z,101558.78
2023-02-18T17:36:11.741Z,101564.72
2023-02-18T17:38:39.238Z,101560.31
2023-02-18T17:41:06.686Z,101553.59
2023-02-18T17:43:33.901Z,101546.47
2023-02-18T17:46:00.744Z,101550.38
2023-02-18T17:48:28.301Z,101547.72
2023-02-18T17:50:54.855Z,101555.97
2023-02-18T17:53:21.899Z,101551.63
2023-02-18T17:55:49.384Z,101562.31
2023-02-18T17:58:16.907Z,101548.16
2023-02-18T18:00:47.040Z,101552.03
2023-02-18T18:03:14.108Z,101551.69
2023-02-18T18:05:43.342Z,101550.97
2023-02-18T18:08:10.864Z,101549.78
2023-02-18T18:10:40.921Z,101554.94
2023-02-18T18:13:12.986Z,101559.63
2023-02-18T18:15:41.959Z,101558.88
2023-02-18T18:18:10.612Z,101550.94
2023-02-18T18:20:38.010Z,101541.03
2023-02-18T18:23:06.286Z,101546.19
2023-02-18T18:25:37.348Z,101548.16
2023-02-18T18:28:05.368Z,101551.00
2023-02-18T18:30:35.560Z,101560.06
2023-02-18T18:33:03.330Z,101558.09
2023-02-18T18:35:32.799Z,101558.09
2023-02-18T18:38:00.077Z,101547.78
2023-02-18T18:40:29.847Z,101549.72
2023-02-18T18:42:57.743Z,101556.47
2023-02-18T18:45:24.262Z,101550.94
2023-02-18T18:47:51.963Z,101551.28
2023-02-18T18:50:20.279Z,101553.31
2023-02-18T18:52:48.212Z,101561.97
2023-02-18T18:55:26.881Z,101540.59
2023-02-18T18:57:53.810Z,101546.09
2023-02-18T19:00:24.596Z,101547.66
2023-02-18T19:02:51.404Z,101541.69
2023-02-18T19:05:25.951Z,101547.25
2023-02-18T19:07:53.017Z,101538.16
2023-02-18T19:10:20.228Z,101543.25
2023-02-18T19:12:47.307Z,101538.94
2023-02-18T19:15:17.206Z,101530.16
2023-02-18T19:17:48.701Z,101541.25
2023-02-18T19:20:17.198Z,101544.41
2023-02-18T19:22:43.673Z,101531.34
2023-02-18T19:25:10.487Z,101536.16
2023-02-18T19:27:39.142Z,101530.16
2023-02-18T19:30:07.205Z,101533.38
2023-02-18T19:32:34.196Z,101530.22
2023-02-18T19:35:00.824Z,101528.22
2023-02-18T19:37:31.849Z,101521.84
2023-02-18T19:39:58.713Z,101529.00
2023-02-18T19:42:25.407Z,101535.75
2023-02-18T19:44:55.581Z,101533.31
2023-02-18T19:47:24.130Z,101528.22
2023-02-18T19:49:51.036Z,101534.94
2023-02-18T19:52:18.573Z,101530.13
2023-02-18T19:55:05.480Z,101531.72
2023-02-18T19:57:32.893Z,101517.16
2023-02-18T19:59:59.436Z,101514.69
2023-02-18T20:02:26.421Z,101524.56
2023-02-18T20:04:54.719Z,101508.38
2023-02-18T20:07:22.519Z,101509.19
2023-02-18T20:09:53.147Z,101510.38
2023-02-18T20:12:20.181Z,101509.50
2023-02-18T20:14:46.874Z,101503.97
2023-02-18T20:17:13.344Z,101495.19
2023-02-18T20:19:40.106Z,101507.13
2023-02-18T20:22:07.633Z,101500.75
2023-02-18T20:24:34.352Z,101507.50
2023-02-18T20:27:02.695Z,101502.72
2023-02-18T20:29:29.874Z,101500.38
2023-02-18T20:31:56.424Z,101495.59
2023-02-18T20:34:22.979Z,101486.47
2023-02-18T20:36:50.084Z,101479.44
2023-02-18T20:39:17.928Z,101479.00
2023-02-18T20:41:46.091Z,101477.78
2023-02-18T20:44:13.113Z,101486.53
2023-02-18T20:46:40.108Z,101479.84
2023-02-18T20:49:08.959Z,101484.16
2023-02-18T20:51:35.903Z,101495.66
2023-02-18T20:54:09.193Z,101482.19
2023-02-18T20:56:39.151Z,101479.03
2023-02-18T20:59:05.999Z,101471.13
2023-02-18T21:01:32.670Z,101472.75
2023-02-18T21:03:59.243Z,101484.19
2023-02-18T21:06:25.866Z,101481.00
2023-02-18T21:08:54.050Z,101466.00
2023-02-18T21:11:23.661Z,101476.72
2023-02-18T21:13:51.880Z,101468.41
2023-02-18T21:16:20.025Z,101467.63
2023-02-18T21:18:46.676Z,101462.13
2023-02-18T21:21:14.072Z,101467.28
2023-02-18T21:23:41.029Z,101457.34
2023-02-18T21:26:11.301Z,101454.94
2023-02-18T21:28:39.008Z,101448.72
2023-02-18T21:31:13.954Z,101453.44
2023-02-18T21:33:40.531Z,101453.41
2023-02-18T21:36:07.270Z,101454.22
2023-02-18T21:38:34.295Z,101461.34
2023-02-18T21:41:00.834Z,101458.13
2023-02-18T21:43:27.326Z,101456.13
2023-02-18T21:45:53.779Z,101457.81
2023-02-18T21:48:38.932Z,101445.50
2023-02-18T21:51:05.536Z,101441.50
2023-02-18T21:53:32.032Z,101450.59
2023-02-18T21:56:08.978Z,101462.91
2023-02-18T21:58:35.458Z,101451.81
2023-02-18T22:01:01.985Z,101470.44
2023-02-18T22:03:28.466Z,101462.13
2023-02-18T22:05:55.043Z,101456.16
2023-02-18T22:08:25.540Z,101451.38
2023-02-18T22:10:52.014Z,101446.63
2023-02-18T22:13:18.503Z,101454.91
2023-02-18T22:15:44.949Z,101451.28
2023-02-18T22:18:11.466Z,101448.50
2023-02-18T22:20:39.023Z,101433.78
2023-02-18T22:23:05.541Z,101428.31
2023-02-18T22:25:32.001Z,101420.00
2023-02-18T22:27:58.489Z,101412.84
2023-02-18T22:30:25.058Z,101420.78
2023-02-18T22:32:51.541Z,101421.53
2023-02-18T22:35:18.167Z,101403.00
2023-02-18T22:37:44.633Z,101393.06
2023-02-18T22:40:11.279Z,101398.63
2023-02-18T22:42:37.822Z,101395.84
2023-02-18T22:45:04.666Z,101384.38
2023-02-18T22:47:31.181Z,101369.00
2023-02-18T22:49:57.632Z,101369.38
2023-02-18T22:52:24.160Z,101374.97
2023-02-18T22:54:50.677Z,101389.97
2023-02-18T22:57:17.217Z,101394.03
2023-02-18T22:59:43.749Z,101400.72
2023-02-18T23:02:10.394Z,101386.09
2023-02-18T23:04:39.673Z,101380.94
2023-02-18T23:07:06.286Z,101371.00
2023-02-18T23:09:32.869Z,101388.88
2023-02-18T23:11:59.507Z,101385.22
2023-02-18T23:14:28.110Z,101381.28
2023-02-18T23:17:15.946Z,101401.00
2023-02-18T23:19:47.864Z,101384.78
2023-02-18T23:22:28.570Z,101389.94
2023-02-18T23:24:55.117Z,101383.63
2023-02-18T23:27:23.184Z,101374.50
2023-02-18T23:29:49.746Z,101377.25
2023-02-18T23:32:16.705Z,101398.16
2023-02-18T23:34:43.234Z,101385.97
2023-02-18T23:37:10.258Z,101381.94
2023-02-18T23:39:36.995Z,101382.75
2023-02-18T23:42:03.623Z,101375.69
2023-02-18T23:44:30.274Z,101393.84
2023-02-18T23:46:56.790Z,101375.25
2023-02-18T23:49:25.683Z,101366.56
2023-02-18T23:51:54.154Z,101370.16
2023-02-18T23:54:21.404Z,101368.47
2023-02-18T23:56:48.084Z,101378.84
2023-02-18T23:59:14.575Z,101380.41
